Etusivu
METAR-TAF:

METAR-TAF

Lentoasemat :

Jim Hogg County Airport

Hebbronville, Texas, Yhdysvallat

Leveyspiiri: 27-20N, Pituuspiiri: 098-44W, korkeus merenpinnasta: 202 m

Tämänhetkinen sää

Tämä raportti tehtiin 37 minuuttia sitten, kello 10.50 UTC
tyyntä
Lämpötila 19°C
Kosteus 100%
Ilmanpaine 1018 hPa
Näkyvyys: 8.0 km
Pilvistä 400 ft:n korkeudessa
utua

METAR: KHBV 061050Z AUTO 00000KT 5SM BR OVC004 19/19 A3006 RMK AO2 T01910185

Aika: 05:27 (11:27 UTC)


TAF: puuttuu

Säähavainnot ja -ennusteet yli 4000 lentoasemalta (METAR- ja TAF-raportit).

Käytössä olevat sääasemat on merkitty karttaan keltaisilla ja punaisilla pisteillä.

Aseta hiiri pisteen päälle nähdäksesi sääaseman nimen.

Klikkaa sitten nähdäksesi säähavainnot ja -ennusteet.

Kartan vaihtaminen: klikkaa mustalla rastilla varustettuja vihreitä pisteitä, niin voit zoomata sisään; viivalla varustettua vihreää pistettä, niin voit zoomata ulos tai vihreitä nuolia, niin pääset viereisille kartoille.


METAR-TAF: